sensor_id;sensor_type;location;lat;lon;timestamp;temperature;humidity
16040;DHT22;8124;48.634;8.120;2023-02-28T00:00:38;0.70;66.10
16040;DHT22;8124;48.634;8.120;2023-02-28T00:05:41;0.50;66.40
16040;DHT22;8124;48.634;8.120;2023-02-28T00:10:45;0.40;67.20
16040;DHT22;8124;48.634;8.120;2023-02-28T00:15:58;0.40;68.40
16040;DHT22;8124;48.634;8.120;2023-02-28T00:21:01;0.40;69.50
16040;DHT22;8124;48.634;8.120;2023-02-28T00:26:06;0.30;70.60
16040;DHT22;8124;48.634;8.120;2023-02-28T00:31:09;0.20;72.20
16040;DHT22;8124;48.634;8.120;2023-02-28T00:36:12;0.30;73.90
16040;DHT22;8124;48.634;8.120;2023-02-28T00:41:16;0.10;75.30
16040;DHT22;8124;48.634;8.120;2023-02-28T00:46:21;0.10;77.10
16040;DHT22;8124;48.634;8.120;2023-02-28T00:51:25;0.10;78.90
16040;DHT22;8124;48.634;8.120;2023-02-28T00:56:29;0.00;80.60
16040;DHT22;8124;48.634;8.120;2023-02-28T01:01:32;-0.10;83.00
16040;DHT22;8124;48.634;8.120;2023-02-28T01:06:36;-0.10;86.10
16040;DHT22;8124;48.634;8.120;2023-02-28T01:11:41;-0.10;89.10
16040;DHT22;8124;48.634;8.120;2023-02-28T01:16:45;0.10;90.80
16040;DHT22;8124;48.634;8.120;2023-02-28T01:21:48;0.00;92.10
16040;DHT22;8124;48.634;8.120;2023-02-28T01:26:53;0.10;93.50
16040;DHT22;8124;48.634;8.120;2023-02-28T01:31:56;0.10;94.80
16040;DHT22;8124;48.634;8.120;2023-02-28T01:37:01;0.60;96.10
16040;DHT22;8124;48.634;8.120;2023-02-28T01:42:08;0.50;96.30
16040;DHT22;8124;48.634;8.120;2023-02-28T01:47:11;0.10;97.10
16040;DHT22;8124;48.634;8.120;2023-02-28T01:52:15;0.00;98.90
16040;DHT22;8124;48.634;8.120;2023-02-28T01:57:25;0.00;99.90
16040;DHT22;8124;48.634;8.120;2023-02-28T02:02:29;0.10;99.90
16040;DHT22;8124;48.634;8.120;2023-02-28T02:07:36;0.20;99.90
16040;DHT22;8124;48.634;8.120;2023-02-28T02:13:05;0.00;99.90
16040;DHT22;8124;48.634;8.120;2023-02-28T02:18:19;0.10;99.90
16040;DHT22;8124;48.634;8.120;2023-02-28T02:23:58;0.00;99.90
16040;DHT22;8124;48.634;8.120;2023-02-28T02:29:33;0.10;99.90
16040;DHT22;8124;48.634;8.120;2023-02-28T02:35:00;0.00;99.90
16040;DHT22;8124;48.634;8.120;2023-02-28T02:40:12;-0.10;99.90
16040;DHT22;8124;48.634;8.120;2023-02-28T02:45:20;-0.20;99.90
16040;DHT22;8124;48.634;8.120;2023-02-28T02:50:29;-0.30;99.90
16040;DHT22;8124;48.634;8.120;2023-02-28T02:55:35;-0.30;99.90
16040;DHT22;8124;48.634;8.120;2023-02-28T03:00:43;-0.30;99.90
16040;DHT22;8124;48.634;8.120;2023-02-28T03:05:50;-0.40;99.90
16040;DHT22;8124;48.634;8.120;2023-02-28T03:10:57;-0.40;99.90
16040;DHT22;8124;48.634;8.120;2023-02-28T03:21:35;-0.40;99.90
16040;DHT22;8124;48.634;8.120;2023-02-28T03:26:43;-0.40;99.90
16040;DHT22;8124;48.634;8.120;2023-02-28T03:31:50;-0.40;99.90
16040;DHT22;8124;48.634;8.120;2023-02-28T03:37:01;-0.50;99.90
16040;DHT22;8124;48.634;8.120;2023-02-28T03:42:08;-0.50;99.90
16040;DHT22;8124;48.634;8.120;2023-02-28T03:47:16;-0.60;99.90
16040;DHT22;8124;48.634;8.120;2023-02-28T03:52:23;-0.70;99.90
16040;DHT22;8124;48.634;8.120;2023-02-28T03:57:34;-0.80;99.90
16040;DHT22;8124;48.634;8.120;2023-02-28T04:02:39;-0.90;99.90
16040;DHT22;8124;48.634;8.120;2023-02-28T04:07:44;-0.90;99.90
16040;DHT22;8124;48.634;8.120;2023-02-28T04:12:47;-0.90;99.90
16040;DHT22;8124;48.634;8.120;2023-02-28T04:17:50;-0.80;99.90
16040;DHT22;8124;48.634;8.120;2023-02-28T04:22:54;-1.00;99.90
16040;DHT22;8124;48.634;8.120;2023-02-28T04:27:57;-0.90;99.90
16040;DHT22;8124;48.634;8.120;2023-02-28T04:33:01;-1.00;99.90
16040;DHT22;8124;48.634;8.120;2023-02-28T04:38:05;-1.00;99.90
16040;DHT22;8124;48.634;8.120;2023-02-28T04:43:10;-0.70;99.90
16040;DHT22;8124;48.634;8.120;2023-02-28T04:48:13;-0.60;99.90
16040;DHT22;8124;48.634;8.120;2023-02-28T04:53:17;-0.60;99.90
16040;DHT22;8124;48.634;8.120;2023-02-28T04:58:20;-0.40;99.90
16040;DHT22;8124;48.634;8.120;2023-02-28T05:03:24;-0.50;99.90
16040;DHT22;8124;48.634;8.120;2023-02-28T05:08:30;-0.80;99.90
16040;DHT22;8124;48.634;8.120;2023-02-28T05:13:34;-0.50;99.90
16040;DHT22;8124;48.634;8.120;2023-02-28T05:18:37;-0.50;99.90
16040;DHT22;8124;48.634;8.120;2023-02-28T05:23:41;-0.50;99.90
16040;DHT22;8124;48.634;8.120;2023-02-28T05:28:44;-0.20;99.90
16040;DHT22;8124;48.634;8.120;2023-02-28T05:33:47;0.10;99.90
16040;DHT22;8124;48.634;8.120;2023-02-28T05:38:52;0.20;99.90
16040;DHT22;8124;48.634;8.120;2023-02-28T05:43:55;0.00;99.90
16040;DHT22;8124;48.634;8.120;2023-02-28T05:48:58;-0.20;99.90
16040;DHT22;8124;48.634;8.120;2023-02-28T05:54:03;0.00;99.90
16040;DHT22;8124;48.634;8.120;2023-02-28T05:59:07;0.10;99.90
16040;DHT22;8124;48.634;8.120;2023-02-28T06:04:11;0.10;99.90
16040;DHT22;8124;48.634;8.120;2023-02-28T06:09:33;0.30;99.90
16040;DHT22;8124;48.634;8.120;2023-02-28T06:14:36;0.30;99.90
16040;DHT22;8124;48.634;8.120;2023-02-28T06:19:39;0.30;99.90
16040;DHT22;8124;48.634;8.120;2023-02-28T06:24:45;0.30;99.90
16040;DHT22;8124;48.634;8.120;2023-02-28T06:29:48;0.30;99.90
16040;DHT22;8124;48.634;8.120;2023-02-28T06:34:52;0.30;99.90
16040;DHT22;8124;48.634;8.120;2023-02-28T06:39:56;0.10;99.90
16040;DHT22;8124;48.634;8.120;2023-02-28T06:44:59;0.20;99.90
16040;DHT22;8124;48.634;8.120;2023-02-28T06:50:06;0.10;99.90
16040;DHT22;8124;48.634;8.120;2023-02-28T06:55:12;0.00;99.90
16040;DHT22;8124;48.634;8.120;2023-02-28T07:00:15;0.20;99.90
16040;DHT22;8124;48.634;8.120;2023-02-28T07:05:19;0.10;99.90
16040;DHT22;8124;48.634;8.120;2023-02-28T07:10:24;0.10;99.90
16040;DHT22;8124;48.634;8.120;2023-02-28T07:15:26;-0.10;99.90
16040;DHT22;8124;48.634;8.120;2023-02-28T07:20:30;0.00;99.90
16040;DHT22;8124;48.634;8.120;2023-02-28T07:25:34;-0.10;99.90
16040;DHT22;8124;48.634;8.120;2023-02-28T07:30:37;0.10;99.90
16040;DHT22;8124;48.634;8.120;2023-02-28T07:35:41;0.30;99.90
16040;DHT22;8124;48.634;8.120;2023-02-28T07:40:45;0.10;99.90
16040;DHT22;8124;48.634;8.120;2023-02-28T07:45:48;0.20;99.90
16040;DHT22;8124;48.634;8.120;2023-02-28T07:50:54;0.20;99.90
16040;DHT22;8124;48.634;8.120;2023-02-28T07:56:00;0.10;99.90
16040;DHT22;8124;48.634;8.120;2023-02-28T08:01:08;0.20;99.90
16040;DHT22;8124;48.634;8.120;2023-02-28T08:06:16;0.00;99.90
16040;DHT22;8124;48.634;8.120;2023-02-28T08:11:21;0.00;99.90
16040;DHT22;8124;48.634;8.120;2023-02-28T08:16:24;0.10;99.90
16040;DHT22;8124;48.634;8.120;2023-02-28T08:21:27;0.10;99.90
16040;DHT22;8124;48.634;8.120;2023-02-28T08:26:31;0.20;99.90
16040;DHT22;8124;48.634;8.120;2023-02-28T08:31:34;0.10;99.90
16040;DHT22;8124;48.634;8.120;2023-02-28T08:36:38;0.20;99.90
16040;DHT22;8124;48.634;8.120;2023-02-28T08:41:43;0.20;99.90
16040;DHT22;8124;48.634;8.120;2023-02-28T08:46:50;0.30;99.90
16040;DHT22;8124;48.634;8.120;2023-02-28T08:51:52;0.50;99.90
16040;DHT22;8124;48.634;8.120;2023-02-28T08:57:04;0.50;99.90
16040;DHT22;8124;48.634;8.120;2023-02-28T09:02:08;0.50;99.90
16040;DHT22;8124;48.634;8.120;2023-02-28T09:07:12;0.60;99.90
16040;DHT22;8124;48.634;8.120;2023-02-28T09:12:16;0.70;99.90
16040;DHT22;8124;48.634;8.120;2023-02-28T09:17:20;0.70;99.90
16040;DHT22;8124;48.634;8.120;2023-02-28T09:22:23;0.70;99.90
16040;DHT22;8124;48.634;8.120;2023-02-28T09:27:28;0.80;99.90
16040;DHT22;8124;48.634;8.120;2023-02-28T09:32:31;0.90;99.90
16040;DHT22;8124;48.634;8.120;2023-02-28T09:37:34;1.00;99.90
16040;DHT22;8124;48.634;8.120;2023-02-28T09:42:38;1.00;99.90
16040;DHT22;8124;48.634;8.120;2023-02-28T09:47:43;1.20;99.90
16040;DHT22;8124;48.634;8.120;2023-02-28T09:52:49;1.30;99.90
16040;DHT22;8124;48.634;8.120;2023-02-28T09:57:54;1.30;99.90
16040;DHT22;8124;48.634;8.120;2023-02-28T10:03:20;1.60;99.90
16040;DHT22;8124;48.634;8.120;2023-02-28T10:08:29;1.60;99.90
16040;DHT22;8124;48.634;8.120;2023-02-28T10:13:36;1.80;99.90
16040;DHT22;8124;48.634;8.120;2023-02-28T10:18:46;2.00;99.90
16040;DHT22;8124;48.634;8.120;2023-02-28T10:23:56;2.00;99.90
16040;DHT22;8124;48.634;8.120;2023-02-28T10:29:03;2.10;99.90
16040;DHT22;8124;48.634;8.120;2023-02-28T10:34:07;2.30;99.90
16040;DHT22;8124;48.634;8.120;2023-02-28T10:39:39;2.40;99.90
16040;DHT22;8124;48.634;8.120;2023-02-28T10:44:44;2.60;99.90
16040;DHT22;8124;48.634;8.120;2023-02-28T10:49:48;2.80;99.90
16040;DHT22;8124;48.634;8.120;2023-02-28T10:55:15;2.60;99.90
16040;DHT22;8124;48.634;8.120;2023-02-28T11:00:24;2.60;99.90
16040;DHT22;8124;48.634;8.120;2023-02-28T11:05:31;2.50;99.90
16040;DHT22;8124;48.634;8.120;2023-02-28T11:10:34;2.70;99.90
16040;DHT22;8124;48.634;8.120;2023-02-28T11:15:39;2.80;99.90
16040;DHT22;8124;48.634;8.120;2023-02-28T11:20:47;2.90;99.90
16040;DHT22;8124;48.634;8.120;2023-02-28T11:25:53;3.10;99.90
16040;DHT22;8124;48.634;8.120;2023-02-28T11:31:08;3.30;99.90
16040;DHT22;8124;48.634;8.120;2023-02-28T11:36:20;3.10;99.90
16040;DHT22;8124;48.634;8.120;2023-02-28T11:41:42;3.00;99.90
16040;DHT22;8124;48.634;8.120;2023-02-28T11:46:51;3.30;99.90
16040;DHT22;8124;48.634;8.120;2023-02-28T11:51:59;3.30;99.90
16040;DHT22;8124;48.634;8.120;2023-02-28T11:57:18;3.10;99.90
16040;DHT22;8124;48.634;8.120;2023-02-28T12:02:28;3.20;99.90
16040;DHT22;8124;48.634;8.120;2023-02-28T12:07:40;3.30;99.90
16040;DHT22;8124;48.634;8.120;2023-02-28T12:12:48;2.90;99.90
16040;DHT22;8124;48.634;8.120;2023-02-28T12:18:03;3.30;99.90
16040;DHT22;8124;48.634;8.120;2023-02-28T12:23:22;3.20;99.90
16040;DHT22;8124;48.634;8.120;2023-02-28T12:28:34;3.60;99.90
16040;DHT22;8124;48.634;8.120;2023-02-28T12:33:43;3.70;99.90
16040;DHT22;8124;48.634;8.120;2023-02-28T12:38:50;3.70;99.90
16040;DHT22;8124;48.634;8.120;2023-02-28T12:44:02;3.80;99.90
16040;DHT22;8124;48.634;8.120;2023-02-28T12:49:10;4.40;99.90
16040;DHT22;8124;48.634;8.120;2023-02-28T12:54:21;4.20;99.90
16040;DHT22;8124;48.634;8.120;2023-02-28T12:59:32;4.00;99.90
16040;DHT22;8124;48.634;8.120;2023-02-28T13:05:00;4.20;99.90
16040;DHT22;8124;48.634;8.120;2023-02-28T13:10:05;4.30;99.90
16040;DHT22;8124;48.634;8.120;2023-02-28T13:15:18;4.40;99.90
16040;DHT22;8124;48.634;8.120;2023-02-28T13:20:26;4.70;99.90
16040;DHT22;8124;48.634;8.120;2023-02-28T13:25:52;4.70;99.90
16040;DHT22;8124;48.634;8.120;2023-02-28T13:31:04;5.00;99.50
16040;DHT22;8124;48.634;8.120;2023-02-28T13:36:22;5.10;99.20
16040;DHT22;8124;48.634;8.120;2023-02-28T13:41:45;5.20;98.70
16040;DHT22;8124;48.634;8.120;2023-02-28T13:47:20;5.10;97.90
16040;DHT22;8124;48.634;8.120;2023-02-28T13:52:26;5.10;97.30
16040;DHT22;8124;48.634;8.120;2023-02-28T13:57:40;5.10;96.70
16040;DHT22;8124;48.634;8.120;2023-02-28T14:03:07;5.30;96.60
16040;DHT22;8124;48.634;8.120;2023-02-28T14:08:17;5.60;96.50
16040;DHT22;8124;48.634;8.120;2023-02-28T14:13:40;5.50;95.80
16040;DHT22;8124;48.634;8.120;2023-02-28T14:18:50;5.40;95.10
16040;DHT22;8124;48.634;8.120;2023-02-28T14:35:34;6.20;94.30
16040;DHT22;8124;48.634;8.120;2023-02-28T14:40:40;6.30;94.00
16040;DHT22;8124;48.634;8.120;2023-02-28T14:45:43;6.30;93.40
16040;DHT22;8124;48.634;8.120;2023-02-28T14:50:52;6.20;92.80
16040;DHT22;8124;48.634;8.120;2023-02-28T14:55:55;6.10;92.30
16040;DHT22;8124;48.634;8.120;2023-02-28T15:01:00;6.00;91.90
16040;DHT22;8124;48.634;8.120;2023-02-28T15:06:13;6.10;91.80
16040;DHT22;8124;48.634;8.120;2023-02-28T15:11:19;6.10;91.40
16040;DHT22;8124;48.634;8.120;2023-02-28T15:16:28;6.30;91.40
16040;DHT22;8124;48.634;8.120;2023-02-28T15:21:35;6.40;91.10
16040;DHT22;8124;48.634;8.120;2023-02-28T15:26:42;6.40;90.80
16040;DHT22;8124;48.634;8.120;2023-02-28T15:31:48;6.30;90.30
16040;DHT22;8124;48.634;8.120;2023-02-28T15:37:06;6.30;89.90
16040;DHT22;8124;48.634;8.120;2023-02-28T15:42:10;6.30;89.00
16040;DHT22;8124;48.634;8.120;2023-02-28T15:47:17;6.20;88.20
16040;DHT22;8124;48.634;8.120;2023-02-28T15:52:27;6.30;87.80
16040;DHT22;8124;48.634;8.120;2023-02-28T15:57:33;6.50;87.70
16040;DHT22;8124;48.634;8.120;2023-02-28T16:02:37;6.70;87.50
16040;DHT22;8124;48.634;8.120;2023-02-28T16:07:44;6.60;86.70
16040;DHT22;8124;48.634;8.120;2023-02-28T16:12:48;6.50;85.80
16040;DHT22;8124;48.634;8.120;2023-02-28T16:17:52;6.60;85.30
16040;DHT22;8124;48.634;8.120;2023-02-28T16:22:58;6.70;85.20
16040;DHT22;8124;48.634;8.120;2023-02-28T16:28:04;6.60;84.50
16040;DHT22;8124;48.634;8.120;2023-02-28T16:33:11;6.50;83.70
16040;DHT22;8124;48.634;8.120;2023-02-28T16:38:16;6.40;83.10
16040;DHT22;8124;48.634;8.120;2023-02-28T16:43:23;6.40;82.80
16040;DHT22;8124;48.634;8.120;2023-02-28T16:48:28;6.30;81.80
16040;DHT22;8124;48.634;8.120;2023-02-28T16:53:37;6.10;81.20
16040;DHT22;8124;48.634;8.120;2023-02-28T16:58:40;6.10;80.80
16040;DHT22;8124;48.634;8.120;2023-02-28T17:03:43;6.00;80.40
16040;DHT22;8124;48.634;8.120;2023-02-28T17:08:48;5.90;80.10
16040;DHT22;8124;48.634;8.120;2023-02-28T17:13:52;5.70;79.80
16040;DHT22;8124;48.634;8.120;2023-02-28T17:18:58;5.60;79.80
16040;DHT22;8124;48.634;8.120;2023-02-28T17:24:03;5.50;80.00
16040;DHT22;8124;48.634;8.120;2023-02-28T17:29:11;5.50;80.40
16040;DHT22;8124;48.634;8.120;2023-02-28T17:34:15;5.30;80.30
16040;DHT22;8124;48.634;8.120;2023-02-28T17:39:22;5.10;80.30
16040;DHT22;8124;48.634;8.120;2023-02-28T17:44:27;5.00;80.60
16040;DHT22;8124;48.634;8.120;2023-02-28T17:49:30;5.00;81.00
16040;DHT22;8124;48.634;8.120;2023-02-28T17:54:36;4.90;81.40
16040;DHT22;8124;48.634;8.120;2023-02-28T17:59:39;4.80;81.90
16040;DHT22;8124;48.634;8.120;2023-02-28T18:04:43;4.80;82.60
16040;DHT22;8124;48.634;8.120;2023-02-28T18:09:48;4.60;83.90
16040;DHT22;8124;48.634;8.120;2023-02-28T18:14:51;4.40;84.00
16040;DHT22;8124;48.634;8.120;2023-02-28T18:19:54;4.20;85.10
16040;DHT22;8124;48.634;8.120;2023-02-28T18:24:58;4.30;86.70
16040;DHT22;8124;48.634;8.120;2023-02-28T18:30:01;4.10;87.90
16040;DHT22;8124;48.634;8.120;2023-02-28T18:35:06;4.20;89.00
16040;DHT22;8124;48.634;8.120;2023-02-28T18:40:13;4.30;90.10
16040;DHT22;8124;48.634;8.120;2023-02-28T18:45:16;4.40;90.50
16040;DHT22;8124;48.634;8.120;2023-02-28T18:50:20;4.40;90.60
16040;DHT22;8124;48.634;8.120;2023-02-28T18:55:24;4.60;91.10
16040;DHT22;8124;48.634;8.120;2023-02-28T19:00:28;4.20;90.80
16040;DHT22;8124;48.634;8.120;2023-02-28T19:05:39;4.20;91.00
16040;DHT22;8124;48.634;8.120;2023-02-28T19:10:49;4.10;91.20
16040;DHT22;8124;48.634;8.120;2023-02-28T19:16:00;3.80;91.30
16040;DHT22;8124;48.634;8.120;2023-02-28T19:21:05;3.70;91.80
16040;DHT22;8124;48.634;8.120;2023-02-28T19:26:12;3.60;92.50
16040;DHT22;8124;48.634;8.120;2023-02-28T19:31:17;3.50;93.20
16040;DHT22;8124;48.634;8.120;2023-02-28T19:36:21;3.70;93.90
16040;DHT22;8124;48.634;8.120;2023-02-28T19:41:25;3.70;94.30
16040;DHT22;8124;48.634;8.120;2023-02-28T19:46:29;3.50;94.90
16040;DHT22;8124;48.634;8.120;2023-02-28T19:51:32;3.20;94.90
16040;DHT22;8124;48.634;8.120;2023-02-28T19:56:42;3.00;95.90
16040;DHT22;8124;48.634;8.120;2023-02-28T20:01:45;3.00;97.30
16040;DHT22;8124;48.634;8.120;2023-02-28T20:06:49;3.00;98.80
16040;DHT22;8124;48.634;8.120;2023-02-28T20:11:53;2.70;99.90
16040;DHT22;8124;48.634;8.120;2023-02-28T20:17:00;2.50;99.90
16040;DHT22;8124;48.634;8.120;2023-02-28T20:22:03;2.60;99.90
16040;DHT22;8124;48.634;8.120;2023-02-28T20:27:07;2.30;99.90
16040;DHT22;8124;48.634;8.120;2023-02-28T20:32:10;2.20;99.90
16040;DHT22;8124;48.634;8.120;2023-02-28T20:37:13;2.10;99.90
16040;DHT22;8124;48.634;8.120;2023-02-28T20:42:18;2.20;99.90
16040;DHT22;8124;48.634;8.120;2023-02-28T20:47:21;2.10;99.90
16040;DHT22;8124;48.634;8.120;2023-02-28T20:52:24;2.00;99.90
16040;DHT22;8124;48.634;8.120;2023-02-28T20:57:29;2.00;99.90
16040;DHT22;8124;48.634;8.120;2023-02-28T21:02:32;1.90;99.90
16040;DHT22;8124;48.634;8.120;2023-02-28T21:07:36;1.90;99.90
16040;DHT22;8124;48.634;8.120;2023-02-28T21:12:40;1.90;99.90
16040;DHT22;8124;48.634;8.120;2023-02-28T21:17:43;2.00;99.90
16040;DHT22;8124;48.634;8.120;2023-02-28T21:22:48;1.90;99.90
16040;DHT22;8124;48.634;8.120;2023-02-28T21:27:52;2.00;99.90
16040;DHT22;8124;48.634;8.120;2023-02-28T21:32:56;2.00;99.90
16040;DHT22;8124;48.634;8.120;2023-02-28T21:37:59;1.90;99.90
16040;DHT22;8124;48.634;8.120;2023-02-28T21:43:03;1.80;99.90
16040;DHT22;8124;48.634;8.120;2023-02-28T21:48:06;1.80;99.90
16040;DHT22;8124;48.634;8.120;2023-02-28T21:53:11;1.80;99.90
16040;DHT22;8124;48.634;8.120;2023-02-28T21:58:15;1.70;99.90
16040;DHT22;8124;48.634;8.120;2023-02-28T22:03:18;1.70;99.90
16040;DHT22;8124;48.634;8.120;2023-02-28T22:08:21;1.60;99.90
16040;DHT22;8124;48.634;8.120;2023-02-28T22:13:25;1.60;99.90
16040;DHT22;8124;48.634;8.120;2023-02-28T22:18:28;1.50;99.90
16040;DHT22;8124;48.634;8.120;2023-02-28T22:23:31;1.60;99.90
16040;DHT22;8124;48.634;8.120;2023-02-28T22:28:36;1.70;99.90
16040;DHT22;8124;48.634;8.120;2023-02-28T22:33:38;1.70;99.90
16040;DHT22;8124;48.634;8.120;2023-02-28T22:38:42;1.60;99.90
16040;DHT22;8124;48.634;8.120;2023-02-28T22:43:50;1.70;99.90
16040;DHT22;8124;48.634;8.120;2023-02-28T22:48:54;1.70;99.90
16040;DHT22;8124;48.634;8.120;2023-02-28T22:53:57;1.70;99.90
16040;DHT22;8124;48.634;8.120;2023-02-28T22:59:01;1.70;99.90
16040;DHT22;8124;48.634;8.120;2023-02-28T23:04:05;1.70;99.90
16040;DHT22;8124;48.634;8.120;2023-02-28T23:09:10;1.60;99.90
16040;DHT22;8124;48.634;8.120;2023-02-28T23:14:17;1.60;99.90
16040;DHT22;8124;48.634;8.120;2023-02-28T23:19:23;1.80;99.90
16040;DHT22;8124;48.634;8.120;2023-02-28T23:24:29;1.90;99.90
16040;DHT22;8124;48.634;8.120;2023-02-28T23:29:34;2.20;99.90
16040;DHT22;8124;48.634;8.120;2023-02-28T23:34:37;2.30;99.90
16040;DHT22;8124;48.634;8.120;2023-02-28T23:39:40;2.50;99.90
16040;DHT22;8124;48.634;8.120;2023-02-28T23:44:44;2.60;99.90
16040;DHT22;8124;48.634;8.120;2023-02-28T23:49:47;2.70;99.90
16040;DHT22;8124;48.634;8.120;2023-02-28T23:54:50;2.80;99.90
16040;DHT22;8124;48.634;8.120;2023-02-28T23:59:55;2.80;99.90
